Las Palmas, Spain
Current Conditions -  °F | °C
As of 6:00 PM on Friday 28 Nov 2014 (Local Time) from GCLP Reporting Station
Scattered Clouds Scattered Clouds  
Wind Chill: 72°   Ceiling: Unl
Heat Index: 72°   Visibility: 6mi
Dew Point: 59°   Wind: 10mph
Humidity: 64%   Direction: 360°N
Pressure: 29.5"   Gusts: NA
Location:  28.12°N, 15.43°W
Report Text: GCLP 281800Z 36009KT 9999 FEW020 SCT050 22/15 Q0999 NOSIG
Loading
Personal Weather Stations






























Interactive Weather Map New forecast layout! Learn more

10-Day Weather Forecast

Advertisements
Track Severe Weather on mobile